sensor_id;sensor_type;location;lat;lon;timestamp;P1;durP1;ratioP1;P2;durP2;ratioP2
81176;SDS011;70786;48.272;14.200;2023-06-22T00:02:17;6.85;;;1.88;;
81176;SDS011;70786;48.272;14.200;2023-06-22T00:04:43;5.13;;;1.90;;
81176;SDS011;70786;48.272;14.200;2023-06-22T00:07:09;3.28;;;1.60;;
81176;SDS011;70786;48.272;14.200;2023-06-22T00:09:35;3.50;;;1.77;;
81176;SDS011;70786;48.272;14.200;2023-06-22T00:12:02;4.22;;;1.98;;
81176;SDS011;70786;48.272;14.200;2023-06-22T00:14:28;5.10;;;1.80;;
81176;SDS011;70786;48.272;14.200;2023-06-22T00:16:54;3.38;;;1.60;;
81176;SDS011;70786;48.272;14.200;2023-06-22T00:19:23;6.75;;;2.00;;
81176;SDS011;70786;48.272;14.200;2023-06-22T00:21:49;5.65;;;1.73;;
81176;SDS011;70786;48.272;14.200;2023-06-22T00:24:21;6.43;;;2.78;;
81176;SDS011;70786;48.272;14.200;2023-06-22T00:26:48;5.57;;;2.50;;
81176;SDS011;70786;48.272;14.200;2023-06-22T00:29:14;4.30;;;2.50;;
81176;SDS011;70786;48.272;14.200;2023-06-22T00:31:40;5.03;;;2.88;;
81176;SDS011;70786;48.272;14.200;2023-06-22T00:34:06;3.45;;;2.25;;
81176;SDS011;70786;48.272;14.200;2023-06-22T00:36:34;7.15;;;2.35;;
81176;SDS011;70786;48.272;14.200;2023-06-22T00:39:01;5.40;;;2.22;;
81176;SDS011;70786;48.272;14.200;2023-06-22T00:41:27;4.63;;;2.00;;
81176;SDS011;70786;48.272;14.200;2023-06-22T00:43:54;3.15;;;1.90;;
81176;SDS011;70786;48.272;14.200;2023-06-22T00:46:21;5.20;;;1.90;;
81176;SDS011;70786;48.272;14.200;2023-06-22T00:48:48;4.28;;;2.17;;
81176;SDS011;70786;48.272;14.200;2023-06-22T00:51:15;5.40;;;2.13;;
81176;SDS011;70786;48.272;14.200;2023-06-22T00:53:41;5.13;;;2.28;;
81176;SDS011;70786;48.272;14.200;2023-06-22T00:56:08;3.50;;;2.00;;
81176;SDS011;70786;48.272;14.200;2023-06-22T00:58:38;5.80;;;2.00;;
81176;SDS011;70786;48.272;14.200;2023-06-22T01:01:07;3.65;;;1.65;;
81176;SDS011;70786;48.272;14.200;2023-06-22T01:03:33;6.50;;;2.00;;
81176;SDS011;70786;48.272;14.200;2023-06-22T01:06:05;4.10;;;1.80;;
81176;SDS011;70786;48.272;14.200;2023-06-22T01:08:44;4.25;;;2.10;;
81176;SDS011;70786;48.272;14.200;2023-06-22T01:11:22;5.32;;;1.70;;
81176;SDS011;70786;48.272;14.200;2023-06-22T01:14:00;4.78;;;2.05;;
81176;SDS011;70786;48.272;14.200;2023-06-22T01:16:35;3.80;;;2.10;;
81176;SDS011;70786;48.272;14.200;2023-06-22T01:19:09;3.65;;;1.67;;
81176;SDS011;70786;48.272;14.200;2023-06-22T01:21:47;4.70;;;2.10;;
81176;SDS011;70786;48.272;14.200;2023-06-22T01:24:33;3.63;;;2.20;;
81176;SDS011;70786;48.272;14.200;2023-06-22T01:30:01;2.58;;;1.52;;
81176;SDS011;70786;48.272;14.200;2023-06-22T01:32:31;6.63;;;2.38;;
81176;SDS011;70786;48.272;14.200;2023-06-22T01:35:00;4.82;;;1.98;;
81176;SDS011;70786;48.272;14.200;2023-06-22T01:37:29;8.25;;;2.03;;
81176;SDS011;70786;48.272;14.200;2023-06-22T01:39:58;5.35;;;1.90;;
81176;SDS011;70786;48.272;14.200;2023-06-22T01:42:24;6.18;;;1.90;;
81176;SDS011;70786;48.272;14.200;2023-06-22T01:44:52;5.30;;;2.00;;
81176;SDS011;70786;48.272;14.200;2023-06-22T01:47:20;3.50;;;2.08;;
81176;SDS011;70786;48.272;14.200;2023-06-22T01:49:47;4.28;;;1.80;;
81176;SDS011;70786;48.272;14.200;2023-06-22T01:52:15;3.83;;;1.83;;
81176;SDS011;70786;48.272;14.200;2023-06-22T01:54:41;5.60;;;1.90;;
81176;SDS011;70786;48.272;14.200;2023-06-22T01:57:07;4.20;;;1.80;;
81176;SDS011;70786;48.272;14.200;2023-06-22T01:59:46;3.63;;;1.92;;
81176;SDS011;70786;48.272;14.200;2023-06-22T02:02:27;6.55;;;4.07;;
81176;SDS011;70786;48.272;14.200;2023-06-22T02:05:08;5.25;;;1.80;;
81176;SDS011;70786;48.272;14.200;2023-06-22T02:07:54;7.22;;;2.05;;
81176;SDS011;70786;48.272;14.200;2023-06-22T02:10:28;3.80;;;2.03;;
81176;SDS011;70786;48.272;14.200;2023-06-22T02:12:55;4.50;;;2.30;;
81176;SDS011;70786;48.272;14.200;2023-06-22T02:15:26;4.38;;;2.08;;
81176;SDS011;70786;48.272;14.200;2023-06-22T02:17:59;5.25;;;2.50;;
81176;SDS011;70786;48.272;14.200;2023-06-22T02:20:32;8.38;;;2.20;;
81176;SDS011;70786;48.272;14.200;2023-06-22T02:22:58;4.57;;;2.20;;
81176;SDS011;70786;48.272;14.200;2023-06-22T02:25:27;5.00;;;2.30;;
81176;SDS011;70786;48.272;14.200;2023-06-22T02:28:02;5.60;;;2.55;;
81176;SDS011;70786;48.272;14.200;2023-06-22T02:30:34;5.82;;;2.63;;
81176;SDS011;70786;48.272;14.200;2023-06-22T02:33:05;4.75;;;2.30;;
81176;SDS011;70786;48.272;14.200;2023-06-22T02:35:34;5.90;;;2.50;;
81176;SDS011;70786;48.272;14.200;2023-06-22T02:38:03;6.82;;;2.22;;
81176;SDS011;70786;48.272;14.200;2023-06-22T02:40:30;7.90;;;2.35;;
81176;SDS011;70786;48.272;14.200;2023-06-22T02:42:57;6.45;;;1.75;;
81176;SDS011;70786;48.272;14.200;2023-06-22T02:45:30;7.78;;;2.30;;
81176;SDS011;70786;48.272;14.200;2023-06-22T02:47:56;9.43;;;2.40;;
81176;SDS011;70786;48.272;14.200;2023-06-22T02:50:23;7.15;;;2.15;;
81176;SDS011;70786;48.272;14.200;2023-06-22T02:52:53;4.03;;;1.95;;
81176;SDS011;70786;48.272;14.200;2023-06-22T02:55:20;4.22;;;1.88;;
81176;SDS011;70786;48.272;14.200;2023-06-22T02:57:46;5.88;;;2.00;;
81176;SDS011;70786;48.272;14.200;2023-06-22T03:00:13;6.75;;;2.20;;
81176;SDS011;70786;48.272;14.200;2023-06-22T03:02:44;4.32;;;1.92;;
81176;SDS011;70786;48.272;14.200;2023-06-22T03:05:11;9.00;;;2.22;;
81176;SDS011;70786;48.272;14.200;2023-06-22T03:07:44;4.32;;;2.13;;
81176;SDS011;70786;48.272;14.200;2023-06-22T03:10:11;5.13;;;2.00;;
81176;SDS011;70786;48.272;14.200;2023-06-22T03:12:42;4.88;;;2.40;;
81176;SDS011;70786;48.272;14.200;2023-06-22T03:15:10;4.18;;;2.25;;
81176;SDS011;70786;48.272;14.200;2023-06-22T03:17:39;4.07;;;2.15;;
81176;SDS011;70786;48.272;14.200;2023-06-22T03:20:07;4.53;;;2.67;;
81176;SDS011;70786;48.272;14.200;2023-06-22T03:22:36;8.30;;;2.42;;
81176;SDS011;70786;48.272;14.200;2023-06-22T03:25:03;7.00;;;2.35;;
81176;SDS011;70786;48.272;14.200;2023-06-22T03:27:32;5.18;;;1.92;;
81176;SDS011;70786;48.272;14.200;2023-06-22T03:29:59;7.18;;;2.25;;
81176;SDS011;70786;48.272;14.200;2023-06-22T03:32:44;8.75;;;2.25;;
81176;SDS011;70786;48.272;14.200;2023-06-22T03:35:12;4.75;;;2.10;;
81176;SDS011;70786;48.272;14.200;2023-06-22T03:37:42;6.13;;;2.10;;
81176;SDS011;70786;48.272;14.200;2023-06-22T03:40:08;5.75;;;2.35;;
81176;SDS011;70786;48.272;14.200;2023-06-22T03:42:38;5.82;;;2.10;;
81176;SDS011;70786;48.272;14.200;2023-06-22T03:45:04;4.35;;;1.98;;
81176;SDS011;70786;48.272;14.200;2023-06-22T03:47:41;5.00;;;2.15;;
81176;SDS011;70786;48.272;14.200;2023-06-22T03:50:19;3.88;;;2.28;;
81176;SDS011;70786;48.272;14.200;2023-06-22T03:52:46;4.57;;;2.50;;
81176;SDS011;70786;48.272;14.200;2023-06-22T03:55:12;4.10;;;2.25;;
81176;SDS011;70786;48.272;14.200;2023-06-22T03:57:41;5.10;;;2.53;;
81176;SDS011;70786;48.272;14.200;2023-06-22T04:00:08;5.90;;;2.47;;
81176;SDS011;70786;48.272;14.200;2023-06-22T04:02:40;6.22;;;2.65;;
81176;SDS011;70786;48.272;14.200;2023-06-22T04:05:09;8.32;;;2.63;;
81176;SDS011;70786;48.272;14.200;2023-06-22T04:07:36;5.70;;;2.50;;
81176;SDS011;70786;48.272;14.200;2023-06-22T04:10:03;7.15;;;2.70;;
81176;SDS011;70786;48.272;14.200;2023-06-22T04:12:30;7.43;;;3.03;;
81176;SDS011;70786;48.272;14.200;2023-06-22T04:14:57;6.25;;;2.70;;
81176;SDS011;70786;48.272;14.200;2023-06-22T04:17:23;5.35;;;2.65;;
81176;SDS011;70786;48.272;14.200;2023-06-22T04:19:51;5.00;;;2.35;;
81176;SDS011;70786;48.272;14.200;2023-06-22T04:22:18;4.65;;;2.17;;
81176;SDS011;70786;48.272;14.200;2023-06-22T04:24:52;5.72;;;2.33;;
81176;SDS011;70786;48.272;14.200;2023-06-22T04:27:19;4.43;;;1.83;;
81176;SDS011;70786;48.272;14.200;2023-06-22T04:29:49;8.13;;;2.38;;
81176;SDS011;70786;48.272;14.200;2023-06-22T04:32:17;6.45;;;2.47;;
81176;SDS011;70786;48.272;14.200;2023-06-22T04:34:43;4.10;;;2.47;;
81176;SDS011;70786;48.272;14.200;2023-06-22T04:37:10;6.15;;;2.20;;
81176;SDS011;70786;48.272;14.200;2023-06-22T04:39:42;4.38;;;2.10;;
81176;SDS011;70786;48.272;14.200;2023-06-22T04:42:09;5.50;;;2.20;;
81176;SDS011;70786;48.272;14.200;2023-06-22T04:44:39;6.53;;;2.28;;
81176;SDS011;70786;48.272;14.200;2023-06-22T04:47:07;5.38;;;2.35;;
81176;SDS011;70786;48.272;14.200;2023-06-22T04:49:37;6.22;;;2.67;;
81176;SDS011;70786;48.272;14.200;2023-06-22T04:52:04;6.82;;;2.80;;
81176;SDS011;70786;48.272;14.200;2023-06-22T04:54:32;4.72;;;2.00;;
81176;SDS011;70786;48.272;14.200;2023-06-22T04:57:03;11.20;;;3.33;;
81176;SDS011;70786;48.272;14.200;2023-06-22T04:59:37;7.72;;;2.53;;
81176;SDS011;70786;48.272;14.200;2023-06-22T05:02:07;6.85;;;3.08;;
81176;SDS011;70786;48.272;14.200;2023-06-22T05:04:34;6.57;;;2.55;;
81176;SDS011;70786;48.272;14.200;2023-06-22T05:07:06;7.13;;;2.88;;
81176;SDS011;70786;48.272;14.200;2023-06-22T05:09:33;4.82;;;2.50;;
81176;SDS011;70786;48.272;14.200;2023-06-22T05:12:03;7.18;;;2.75;;
81176;SDS011;70786;48.272;14.200;2023-06-22T05:14:34;8.90;;;2.92;;
81176;SDS011;70786;48.272;14.200;2023-06-22T05:17:03;7.10;;;2.88;;
81176;SDS011;70786;48.272;14.200;2023-06-22T05:19:29;6.53;;;2.45;;
81176;SDS011;70786;48.272;14.200;2023-06-22T05:21:59;7.57;;;2.70;;
81176;SDS011;70786;48.272;14.200;2023-06-22T05:24:25;6.63;;;3.00;;
81176;SDS011;70786;48.272;14.200;2023-06-22T05:27:01;9.48;;;2.80;;
81176;SDS011;70786;48.272;14.200;2023-06-22T05:29:27;6.68;;;2.47;;
81176;SDS011;70786;48.272;14.200;2023-06-22T05:31:54;11.27;;;2.85;;
81176;SDS011;70786;48.272;14.200;2023-06-22T05:34:23;5.47;;;2.70;;
81176;SDS011;70786;48.272;14.200;2023-06-22T05:36:49;3.63;;;2.15;;
81176;SDS011;70786;48.272;14.200;2023-06-22T05:39:16;5.00;;;2.33;;
81176;SDS011;70786;48.272;14.200;2023-06-22T05:41:50;5.50;;;2.75;;
81176;SDS011;70786;48.272;14.200;2023-06-22T05:44:19;4.32;;;2.53;;
81176;SDS011;70786;48.272;14.200;2023-06-22T05:46:46;4.90;;;2.40;;
81176;SDS011;70786;48.272;14.200;2023-06-22T05:49:14;6.78;;;2.42;;
81176;SDS011;70786;48.272;14.200;2023-06-22T05:51:43;4.60;;;2.25;;
81176;SDS011;70786;48.272;14.200;2023-06-22T05:54:10;5.75;;;2.70;;
81176;SDS011;70786;48.272;14.200;2023-06-22T05:56:43;6.13;;;2.58;;
81176;SDS011;70786;48.272;14.200;2023-06-22T05:59:10;4.03;;;2.40;;
81176;SDS011;70786;48.272;14.200;2023-06-22T06:01:36;5.78;;;3.13;;
81176;SDS011;70786;48.272;14.200;2023-06-22T06:04:06;4.38;;;2.45;;
81176;SDS011;70786;48.272;14.200;2023-06-22T06:06:35;5.07;;;2.70;;
81176;SDS011;70786;48.272;14.200;2023-06-22T06:09:03;5.65;;;3.00;;
81176;SDS011;70786;48.272;14.200;2023-06-22T06:11:30;6.80;;;3.17;;
81176;SDS011;70786;48.272;14.200;2023-06-22T06:14:00;7.63;;;3.25;;
81176;SDS011;70786;48.272;14.200;2023-06-22T06:16:26;3.70;;;2.40;;
81176;SDS011;70786;48.272;14.200;2023-06-22T06:18:55;5.00;;;2.60;;
81176;SDS011;70786;48.272;14.200;2023-06-22T06:21:22;5.97;;;2.72;;
81176;SDS011;70786;48.272;14.200;2023-06-22T06:23:49;6.18;;;2.85;;
81176;SDS011;70786;48.272;14.200;2023-06-22T06:26:18;6.30;;;2.45;;
81176;SDS011;70786;48.272;14.200;2023-06-22T06:28:56;5.05;;;2.92;;
81176;SDS011;70786;48.272;14.200;2023-06-22T06:31:26;7.60;;;2.10;;
81176;SDS011;70786;48.272;14.200;2023-06-22T06:33:56;4.82;;;2.20;;
81176;SDS011;70786;48.272;14.200;2023-06-22T06:36:25;5.82;;;2.60;;
81176;SDS011;70786;48.272;14.200;2023-06-22T06:38:52;4.63;;;2.58;;
81176;SDS011;70786;48.272;14.200;2023-06-22T06:41:18;6.45;;;3.20;;
81176;SDS011;70786;48.272;14.200;2023-06-22T06:43:44;5.15;;;2.20;;
81176;SDS011;70786;48.272;14.200;2023-06-22T06:46:10;4.55;;;3.08;;
81176;SDS011;70786;48.272;14.200;2023-06-22T06:48:36;5.43;;;2.33;;
81176;SDS011;70786;48.272;14.200;2023-06-22T06:51:02;6.20;;;2.78;;
81176;SDS011;70786;48.272;14.200;2023-06-22T06:53:28;5.95;;;2.58;;
81176;SDS011;70786;48.272;14.200;2023-06-22T06:55:55;5.75;;;2.95;;
81176;SDS011;70786;48.272;14.200;2023-06-22T06:58:21;8.10;;;2.70;;
81176;SDS011;70786;48.272;14.200;2023-06-22T07:00:48;6.47;;;3.28;;
81176;SDS011;70786;48.272;14.200;2023-06-22T07:03:14;3.90;;;2.20;;
81176;SDS011;70786;48.272;14.200;2023-06-22T07:05:40;4.18;;;2.08;;
81176;SDS011;70786;48.272;14.200;2023-06-22T07:08:06;4.05;;;2.25;;
81176;SDS011;70786;48.272;14.200;2023-06-22T07:10:32;5.43;;;2.40;;
81176;SDS011;70786;48.272;14.200;2023-06-22T07:12:58;5.30;;;2.80;;
81176;SDS011;70786;48.272;14.200;2023-06-22T07:15:24;5.35;;;2.58;;
81176;SDS011;70786;48.272;14.200;2023-06-22T07:17:50;6.07;;;2.45;;
81176;SDS011;70786;48.272;14.200;2023-06-22T07:20:16;3.92;;;2.20;;
81176;SDS011;70786;48.272;14.200;2023-06-22T07:22:43;3.92;;;2.03;;
81176;SDS011;70786;48.272;14.200;2023-06-22T07:25:12;6.80;;;2.35;;
81176;SDS011;70786;48.272;14.200;2023-06-22T07:28:02;6.82;;;3.53;;
81176;SDS011;70786;48.272;14.200;2023-06-22T07:30:29;8.23;;;2.70;;
81176;SDS011;70786;48.272;14.200;2023-06-22T07:32:56;6.10;;;2.20;;
81176;SDS011;70786;48.272;14.200;2023-06-22T07:35:24;4.57;;;2.58;;
81176;SDS011;70786;48.272;14.200;2023-06-22T07:37:50;6.68;;;2.80;;
81176;SDS011;70786;48.272;14.200;2023-06-22T07:40:16;8.50;;;2.92;;
81176;SDS011;70786;48.272;14.200;2023-06-22T07:42:42;8.93;;;2.97;;
81176;SDS011;70786;48.272;14.200;2023-06-22T07:45:08;6.78;;;2.63;;
81176;SDS011;70786;48.272;14.200;2023-06-22T07:47:34;5.57;;;2.15;;
81176;SDS011;70786;48.272;14.200;2023-06-22T07:50:00;7.38;;;2.55;;
81176;SDS011;70786;48.272;14.200;2023-06-22T07:52:28;5.25;;;2.83;;
81176;SDS011;70786;48.272;14.200;2023-06-22T07:54:56;7.03;;;2.92;;
81176;SDS011;70786;48.272;14.200;2023-06-22T07:57:22;5.35;;;2.45;;
81176;SDS011;70786;48.272;14.200;2023-06-22T07:59:48;7.78;;;2.55;;
81176;SDS011;70786;48.272;14.200;2023-06-22T08:02:14;5.65;;;2.78;;
81176;SDS011;70786;48.272;14.200;2023-06-22T08:04:40;7.13;;;2.60;;
81176;SDS011;70786;48.272;14.200;2023-06-22T08:07:07;5.63;;;2.40;;
81176;SDS011;70786;48.272;14.200;2023-06-22T08:09:33;6.00;;;2.42;;
81176;SDS011;70786;48.272;14.200;2023-06-22T08:11:59;5.07;;;3.22;;
81176;SDS011;70786;48.272;14.200;2023-06-22T08:14:25;6.00;;;2.90;;
81176;SDS011;70786;48.272;14.200;2023-06-22T08:16:52;5.38;;;2.75;;
81176;SDS011;70786;48.272;14.200;2023-06-22T08:19:18;5.25;;;2.50;;
81176;SDS011;70786;48.272;14.200;2023-06-22T08:21:44;5.38;;;2.20;;
81176;SDS011;70786;48.272;14.200;2023-06-22T08:24:10;5.40;;;1.85;;
81176;SDS011;70786;48.272;14.200;2023-06-22T08:26:36;6.07;;;2.80;;
81176;SDS011;70786;48.272;14.200;2023-06-22T08:29:03;6.00;;;2.55;;
81176;SDS011;70786;48.272;14.200;2023-06-22T08:31:29;6.70;;;2.60;;
81176;SDS011;70786;48.272;14.200;2023-06-22T08:33:56;6.15;;;2.92;;
81176;SDS011;70786;48.272;14.200;2023-06-22T08:36:22;5.80;;;2.75;;
81176;SDS011;70786;48.272;14.200;2023-06-22T08:38:48;7.90;;;3.33;;
81176;SDS011;70786;48.272;14.200;2023-06-22T08:41:17;4.90;;;1.95;;
81176;SDS011;70786;48.272;14.200;2023-06-22T08:43:43;8.57;;;2.95;;
81176;SDS011;70786;48.272;14.200;2023-06-22T08:46:10;6.68;;;3.00;;
81176;SDS011;70786;48.272;14.200;2023-06-22T08:48:36;6.28;;;2.42;;
81176;SDS011;70786;48.272;14.200;2023-06-22T08:51:02;8.55;;;3.45;;
81176;SDS011;70786;48.272;14.200;2023-06-22T08:53:30;4.85;;;2.38;;
81176;SDS011;70786;48.272;14.200;2023-06-22T08:55:56;6.10;;;2.70;;
81176;SDS011;70786;48.272;14.200;2023-06-22T08:58:22;7.38;;;2.58;;
81176;SDS011;70786;48.272;14.200;2023-06-22T09:00:49;7.13;;;2.67;;
81176;SDS011;70786;48.272;14.200;2023-06-22T09:03:17;6.32;;;3.10;;
81176;SDS011;70786;48.272;14.200;2023-06-22T09:05:43;6.30;;;3.08;;
81176;SDS011;70786;48.272;14.200;2023-06-22T09:08:09;8.55;;;3.65;;
81176;SDS011;70786;48.272;14.200;2023-06-22T09:10:36;6.95;;;2.85;;
81176;SDS011;70786;48.272;14.200;2023-06-22T09:13:02;6.20;;;2.90;;
81176;SDS011;70786;48.272;14.200;2023-06-22T09:15:28;4.65;;;2.60;;
81176;SDS011;70786;48.272;14.200;2023-06-22T09:17:54;5.60;;;2.90;;
81176;SDS011;70786;48.272;14.200;2023-06-22T09:20:20;4.60;;;2.05;;
81176;SDS011;70786;48.272;14.200;2023-06-22T09:22:47;5.63;;;3.00;;
81176;SDS011;70786;48.272;14.200;2023-06-22T09:25:13;5.40;;;2.70;;
81176;SDS011;70786;48.272;14.200;2023-06-22T09:27:39;5.75;;;3.05;;
81176;SDS011;70786;48.272;14.200;2023-06-22T09:30:05;7.18;;;3.10;;
81176;SDS011;70786;48.272;14.200;2023-06-22T09:32:32;5.60;;;3.28;;
81176;SDS011;70786;48.272;14.200;2023-06-22T09:34:58;7.03;;;2.80;;
81176;SDS011;70786;48.272;14.200;2023-06-22T09:37:24;6.90;;;2.85;;
81176;SDS011;70786;48.272;14.200;2023-06-22T09:39:50;8.30;;;3.50;;
81176;SDS011;70786;48.272;14.200;2023-06-22T09:42:16;6.85;;;3.38;;
81176;SDS011;70786;48.272;14.200;2023-06-22T09:44:42;6.43;;;3.13;;
81176;SDS011;70786;48.272;14.200;2023-06-22T09:47:08;5.32;;;2.55;;
81176;SDS011;70786;48.272;14.200;2023-06-22T09:49:34;6.18;;;2.60;;
81176;SDS011;70786;48.272;14.200;2023-06-22T09:52:00;6.75;;;2.67;;
81176;SDS011;70786;48.272;14.200;2023-06-22T09:54:26;6.25;;;3.55;;
81176;SDS011;70786;48.272;14.200;2023-06-22T09:56:51;7.72;;;2.85;;
81176;SDS011;70786;48.272;14.200;2023-06-22T09:59:17;5.80;;;2.95;;
81176;SDS011;70786;48.272;14.200;2023-06-22T10:01:43;5.95;;;2.85;;
81176;SDS011;70786;48.272;14.200;2023-06-22T10:04:10;8.38;;;3.08;;
81176;SDS011;70786;48.272;14.200;2023-06-22T10:06:35;7.47;;;3.38;;
81176;SDS011;70786;48.272;14.200;2023-06-22T10:09:01;7.28;;;3.10;;
81176;SDS011;70786;48.272;14.200;2023-06-22T10:11:28;6.82;;;3.25;;
81176;SDS011;70786;48.272;14.200;2023-06-22T10:13:56;7.65;;;3.35;;
81176;SDS011;70786;48.272;14.200;2023-06-22T10:16:23;5.93;;;2.97;;
81176;SDS011;70786;48.272;14.200;2023-06-22T10:18:55;7.82;;;2.97;;
81176;SDS011;70786;48.272;14.200;2023-06-22T10:21:21;4.15;;;2.17;;
81176;SDS011;70786;48.272;14.200;2023-06-22T10:23:47;8.07;;;3.60;;
81176;SDS011;70786;48.272;14.200;2023-06-22T10:26:13;7.40;;;3.30;;
81176;SDS011;70786;48.272;14.200;2023-06-22T10:28:39;3.63;;;2.33;;
81176;SDS011;70786;48.272;14.200;2023-06-22T10:31:05;7.32;;;3.40;;
81176;SDS011;70786;48.272;14.200;2023-06-22T10:33:31;6.20;;;3.17;;
81176;SDS011;70786;48.272;14.200;2023-06-22T10:35:57;6.40;;;2.83;;
81176;SDS011;70786;48.272;14.200;2023-06-22T10:38:23;6.45;;;3.50;;
81176;SDS011;70786;48.272;14.200;2023-06-22T10:40:49;6.50;;;2.83;;
81176;SDS011;70786;48.272;14.200;2023-06-22T10:43:15;3.67;;;2.55;;
81176;SDS011;70786;48.272;14.200;2023-06-22T10:45:41;6.93;;;3.45;;
81176;SDS011;70786;48.272;14.200;2023-06-22T10:48:07;8.63;;;3.15;;
81176;SDS011;70786;48.272;14.200;2023-06-22T10:50:33;8.27;;;2.83;;
81176;SDS011;70786;48.272;14.200;2023-06-22T10:52:59;7.05;;;3.60;;
81176;SDS011;70786;48.272;14.200;2023-06-22T10:55:25;5.63;;;3.20;;
81176;SDS011;70786;48.272;14.200;2023-06-22T10:57:51;8.85;;;4.20;;
81176;SDS011;70786;48.272;14.200;2023-06-22T11:00:17;8.68;;;3.25;;
81176;SDS011;70786;48.272;14.200;2023-06-22T11:02:43;9.02;;;3.75;;
81176;SDS011;70786;48.272;14.200;2023-06-22T11:05:09;5.53;;;3.28;;
81176;SDS011;70786;48.272;14.200;2023-06-22T11:07:36;7.97;;;3.45;;
81176;SDS011;70786;48.272;14.200;2023-06-22T11:10:03;7.90;;;3.72;;
81176;SDS011;70786;48.272;14.200;2023-06-22T11:12:29;5.53;;;2.03;;
81176;SDS011;70786;48.272;14.200;2023-06-22T11:14:55;5.85;;;2.92;;
81176;SDS011;70786;48.272;14.200;2023-06-22T11:17:22;6.22;;;3.25;;
81176;SDS011;70786;48.272;14.200;2023-06-22T11:19:48;5.78;;;3.03;;
81176;SDS011;70786;48.272;14.200;2023-06-22T11:22:14;10.15;;;3.47;;
81176;SDS011;70786;48.272;14.200;2023-06-22T11:24:40;5.63;;;2.63;;
81176;SDS011;70786;48.272;14.200;2023-06-22T11:27:06;5.72;;;3.22;;
81176;SDS011;70786;48.272;14.200;2023-06-22T11:29:32;5.05;;;3.28;;
81176;SDS011;70786;48.272;14.200;2023-06-22T11:31:58;9.38;;;3.45;;
81176;SDS011;70786;48.272;14.200;2023-06-22T11:34:24;6.35;;;3.17;;
81176;SDS011;70786;48.272;14.200;2023-06-22T11:36:50;5.43;;;3.55;;
81176;SDS011;70786;48.272;14.200;2023-06-22T11:39:16;6.28;;;3.60;;
81176;SDS011;70786;48.272;14.200;2023-06-22T11:41:42;7.05;;;3.47;;
81176;SDS011;70786;48.272;14.200;2023-06-22T11:44:08;7.85;;;3.80;;
81176;SDS011;70786;48.272;14.200;2023-06-22T11:46:34;7.90;;;3.83;;
81176;SDS011;70786;48.272;14.200;2023-06-22T11:49:01;7.38;;;3.53;;
81176;SDS011;70786;48.272;14.200;2023-06-22T11:51:27;8.38;;;3.97;;
81176;SDS011;70786;48.272;14.200;2023-06-22T11:53:53;6.20;;;3.40;;
81176;SDS011;70786;48.272;14.200;2023-06-22T11:56:19;6.65;;;3.80;;
81176;SDS011;70786;48.272;14.200;2023-06-22T11:58:45;5.35;;;2.78;;
81176;SDS011;70786;48.272;14.200;2023-06-22T12:01:11;5.18;;;2.92;;
81176;SDS011;70786;48.272;14.200;2023-06-22T12:03:41;5.15;;;2.85;;
81176;SDS011;70786;48.272;14.200;2023-06-22T12:06:09;7.55;;;4.28;;
81176;SDS011;70786;48.272;14.200;2023-06-22T12:08:35;13.48;;;4.85;;
81176;SDS011;70786;48.272;14.200;2023-06-22T12:11:01;6.00;;;3.30;;
81176;SDS011;70786;48.272;14.200;2023-06-22T12:13:27;7.70;;;3.90;;
81176;SDS011;70786;48.272;14.200;2023-06-22T12:15:53;9.10;;;3.92;;
81176;SDS011;70786;48.272;14.200;2023-06-22T12:18:19;7.00;;;3.22;;
81176;SDS011;70786;48.272;14.200;2023-06-22T12:20:47;9.52;;;3.28;;
81176;SDS011;70786;48.272;14.200;2023-06-22T12:23:14;6.32;;;3.17;;
81176;SDS011;70786;48.272;14.200;2023-06-22T12:25:40;8.98;;;4.25;;
81176;SDS011;70786;48.272;14.200;2023-06-22T12:28:06;7.38;;;3.35;;
81176;SDS011;70786;48.272;14.200;2023-06-22T12:30:32;9.10;;;4.05;;
81176;SDS011;70786;48.272;14.200;2023-06-22T12:32:59;9.13;;;3.63;;
81176;SDS011;70786;48.272;14.200;2023-06-22T12:35:25;8.30;;;3.50;;
81176;SDS011;70786;48.272;14.200;2023-06-22T12:37:51;8.88;;;3.90;;
81176;SDS011;70786;48.272;14.200;2023-06-22T12:40:16;8.65;;;3.85;;
81176;SDS011;70786;48.272;14.200;2023-06-22T12:42:44;10.27;;;4.10;;
81176;SDS011;70786;48.272;14.200;2023-06-22T12:45:10;8.75;;;3.78;;
81176;SDS011;70786;48.272;14.200;2023-06-22T12:47:36;7.95;;;4.50;;
81176;SDS011;70786;48.272;14.200;2023-06-22T12:50:02;8.85;;;3.78;;
81176;SDS011;70786;48.272;14.200;2023-06-22T12:52:30;8.50;;;4.78;;
81176;SDS011;70786;48.272;14.200;2023-06-22T12:54:57;11.02;;;4.20;;
81176;SDS011;70786;48.272;14.200;2023-06-22T12:57:23;10.65;;;4.15;;
81176;SDS011;70786;48.272;14.200;2023-06-22T12:59:49;10.32;;;4.40;;
81176;SDS011;70786;48.272;14.200;2023-06-22T13:02:15;6.38;;;3.50;;
81176;SDS011;70786;48.272;14.200;2023-06-22T13:04:41;7.00;;;3.92;;
81176;SDS011;70786;48.272;14.200;2023-06-22T13:07:08;6.13;;;3.65;;
81176;SDS011;70786;48.272;14.200;2023-06-22T13:09:36;6.72;;;3.58;;
81176;SDS011;70786;48.272;14.200;2023-06-22T13:12:02;10.40;;;4.53;;
81176;SDS011;70786;48.272;14.200;2023-06-22T13:14:28;8.30;;;3.58;;
81176;SDS011;70786;48.272;14.200;2023-06-22T13:16:54;10.00;;;4.60;;
81176;SDS011;70786;48.272;14.200;2023-06-22T13:19:20;10.02;;;3.67;;
81176;SDS011;70786;48.272;14.200;2023-06-22T13:21:46;5.32;;;2.53;;
81176;SDS011;70786;48.272;14.200;2023-06-22T13:24:12;8.48;;;4.80;;
81176;SDS011;70786;48.272;14.200;2023-06-22T13:26:38;10.32;;;4.30;;
81176;SDS011;70786;48.272;14.200;2023-06-22T13:29:04;13.90;;;3.78;;
81176;SDS011;70786;48.272;14.200;2023-06-22T13:31:30;6.90;;;3.90;;
81176;SDS011;70786;48.272;14.200;2023-06-22T13:33:56;9.25;;;3.72;;
81176;SDS011;70786;48.272;14.200;2023-06-22T13:36:22;6.63;;;3.75;;
81176;SDS011;70786;48.272;14.200;2023-06-22T13:38:49;6.80;;;3.80;;
81176;SDS011;70786;48.272;14.200;2023-06-22T13:41:15;9.43;;;3.78;;
81176;SDS011;70786;48.272;14.200;2023-06-22T13:43:41;8.20;;;3.67;;
81176;SDS011;70786;48.272;14.200;2023-06-22T13:46:07;10.27;;;4.10;;
81176;SDS011;70786;48.272;14.200;2023-06-22T13:48:33;10.38;;;4.50;;
81176;SDS011;70786;48.272;14.200;2023-06-22T13:50:59;11.27;;;3.13;;
81176;SDS011;70786;48.272;14.200;2023-06-22T13:53:25;4.68;;;3.28;;
81176;SDS011;70786;48.272;14.200;2023-06-22T13:55:52;10.70;;;4.63;;
81176;SDS011;70786;48.272;14.200;2023-06-22T13:58:18;8.02;;;4.38;;
81176;SDS011;70786;48.272;14.200;2023-06-22T14:00:45;10.68;;;5.10;;
81176;SDS011;70786;48.272;14.200;2023-06-22T14:03:11;9.50;;;4.88;;
81176;SDS011;70786;48.272;14.200;2023-06-22T14:05:37;6.95;;;3.67;;
81176;SDS011;70786;48.272;14.200;2023-06-22T14:08:03;8.13;;;3.50;;
81176;SDS011;70786;48.272;14.200;2023-06-22T14:10:29;11.90;;;4.70;;
81176;SDS011;70786;48.272;14.200;2023-06-22T14:12:55;8.40;;;4.40;;
81176;SDS011;70786;48.272;14.200;2023-06-22T14:15:21;10.15;;;4.75;;
81176;SDS011;70786;48.272;14.200;2023-06-22T14:17:47;8.95;;;4.80;;
81176;SDS011;70786;48.272;14.200;2023-06-22T14:20:13;7.30;;;4.00;;
81176;SDS011;70786;48.272;14.200;2023-06-22T14:22:39;8.10;;;3.75;;
81176;SDS011;70786;48.272;14.200;2023-06-22T14:25:05;10.93;;;4.30;;
81176;SDS011;70786;48.272;14.200;2023-06-22T14:27:32;11.52;;;4.90;;
81176;SDS011;70786;48.272;14.200;2023-06-22T14:29:58;6.88;;;3.53;;
81176;SDS011;70786;48.272;14.200;2023-06-22T14:32:24;8.98;;;3.90;;
81176;SDS011;70786;48.272;14.200;2023-06-22T14:34:50;13.23;;;4.72;;
81176;SDS011;70786;48.272;14.200;2023-06-22T14:37:16;8.23;;;4.93;;
81176;SDS011;70786;48.272;14.200;2023-06-22T14:39:42;8.40;;;4.78;;